Time;durP1;ratioP1;P1;durP2;ratioP2;P2;SDS_P1;SDS_P2;PMS_P1;PMS_P2;Temp;Humidity;BMP_temperature;BMP_pressure;BME280_temperature;BME280_humidity;BME280_pressure;Samples;Min_cycle;Max_cycle;Signal;HPM_P1;HPM_P2
2023/04/20 00:02:17;;;;;;;5.18;4.78;;;;;;;3.47;100.00;98634.88;15272900;19;20017;-47
2023/04/20 00:07:44;;;;;;;5.55;5.05;;;;;;;3.51;100.00;98625.72;15272459;19;20035;-45
2023/04/20 00:13:09;;;;;;;5.90;5.25;;;;;;;3.58;100.00;98626.13;15267527;19;20021;-46
2023/04/20 00:18:33;;;;;;;5.45;4.95;;;;;;;3.64;100.00;98624.81;15271056;19;20101;-45
2023/04/20 00:24:01;;;;;;;7.18;4.90;;;;;;;3.65;100.00;98611.38;15271235;19;20020;-46
2023/04/20 00:29:26;;;;;;;5.30;4.80;;;;;;;3.68;100.00;98604.94;15264756;19;20019;-46
2023/04/20 00:34:50;;;;;;;5.53;4.90;;;;;;;3.72;100.00;98602.91;15267548;19;20025;-46
2023/04/20 00:40:17;;;;;;;5.13;4.72;;;;;;;3.74;100.00;98601.84;15270535;19;20014;-46
2023/04/20 00:45:42;;;;;;;5.68;5.18;;;;;;;3.77;100.00;98598.94;15266153;19;20014;-46
2023/04/20 00:51:07;;;;;;;5.60;5.10;;;;;;;3.79;100.00;98597.00;15269925;19;20761;-48
2023/04/20 00:56:34;;;;;;;6.13;5.30;;;;;;;3.75;100.00;98592.03;15266633;19;20020;-48
2023/04/20 01:01:59;;;;;;;4.25;3.85;;;;;;;3.72;100.00;98590.44;15264805;19;20018;-46
2023/04/20 01:07:25;;;;;;;4.38;3.97;;;;;;;3.61;100.00;98593.91;15269844;19;20047;-48
2023/04/20 01:12:52;;;;;;;4.40;4.00;;;;;;;3.62;100.00;98590.28;15266559;19;20114;-48
2023/04/20 01:18:17;;;;;;;4.38;3.97;;;;;;;3.58;100.00;98587.94;15265129;19;20130;-48
2023/04/20 01:23:46;;;;;;;5.07;4.55;;;;;;;3.55;100.00;98589.88;15270771;19;20010;-46
2023/04/20 01:29:11;;;;;;;5.05;4.53;;;;;;;3.51;100.00;98583.09;15280509;19;20033;-45
2023/04/20 01:34:36;;;;;;;4.90;4.40;;;;;;;3.55;100.00;98586.38;15274597;19;20024;-45
2023/04/20 01:40:03;;;;;;;5.80;5.20;;;;;;;3.60;100.00;98602.00;15279883;19;20025;-47
2023/04/20 01:45:28;;;;;;;5.72;5.22;;;;;;;3.63;100.00;98597.31;15277436;19;20014;-46
2023/04/20 01:50:52;;;;;;;5.88;5.38;;;;;;;3.67;100.00;98593.47;15283662;19;20021;-47
2023/04/20 01:56:19;;;;;;;5.80;5.10;;;;;;;3.73;100.00;98588.63;15278070;19;20011;-48
2023/04/20 02:01:44;;;;;;;6.00;5.50;;;;;;;3.76;100.00;98588.41;15279876;19;20067;-46
2023/04/20 02:07:09;;;;;;;8.52;7.75;;;;;;;3.76;100.00;98581.28;15275467;19;20701;-46
2023/04/20 02:12:36;;;;;;;9.73;8.75;;;;;;;3.75;100.00;98579.56;15272951;19;20018;-46
2023/04/20 02:18:00;;;;;;;8.93;8.13;;;;;;;3.73;100.00;98567.31;15278091;19;20034;-46
2023/04/20 02:23:25;;;;;;;9.30;8.25;;;;;;;3.72;100.00;98562.94;15279359;19;20495;-46
2023/04/20 02:28:59;;;;;;;9.00;8.10;;;;;;;3.70;100.00;98555.91;15277254;19;20372;-47
2023/04/20 02:34:24;;;;;;;9.23;8.40;;;;;;;3.75;100.00;98565.38;15269840;19;20017;-45
2023/04/20 02:39:48;;;;;;;9.30;8.40;;;;;;;3.77;100.00;98568.78;15275466;19;20082;-45
2023/04/20 02:45:16;;;;;;;9.85;7.95;;;;;;;3.77;100.00;98556.31;15271003;19;20097;-45
2023/04/20 02:50:42;;;;;;;9.75;8.77;;;;;;;3.77;100.00;98572.28;15277691;19;20135;-45
2023/04/20 02:56:09;;;;;;;10.02;9.00;;;;;;;3.73;100.00;98576.16;15271602;19;20026;-46
2023/04/20 03:01:40;;;;;;;10.73;9.63;;;;;;;3.78;100.00;98578.47;15272170;19;20582;-46
2023/04/20 03:07:08;;;;;;;10.10;9.10;;;;;;;3.80;100.00;98579.22;15271306;19;20017;-46
2023/04/20 03:12:35;;;;;;;9.95;8.90;;;;;;;3.78;100.00;98567.81;15273786;19;20017;-46
2023/04/20 03:18:15;;;;;;;9.50;8.60;;;;;;;3.74;100.00;98574.34;15269249;19;20026;-45
2023/04/20 03:23:40;;;;;;;10.75;9.63;;;;;;;3.73;100.00;98572.63;15270732;19;20041;-46
2023/04/20 03:29:11;;;;;;;10.38;9.30;;;;;;;3.66;100.00;98570.44;15272773;19;20014;-44
2023/04/20 03:34:38;;;;;;;12.18;10.60;;;;;;;3.69;100.00;98575.56;15271725;19;20022;-46
2023/04/20 03:40:04;;;;;;;11.20;10.02;;;;;;;3.68;100.00;98578.31;15266946;19;20024;-45
2023/04/20 03:45:31;;;;;;;11.48;10.18;;;;;;;3.70;100.00;98577.22;15275824;19;20302;-51
2023/04/20 03:50:58;;;;;;;12.30;10.35;;;;;;;3.75;100.00;98576.03;15286934;19;20022;-51
2023/04/20 03:56:23;;;;;;;12.07;10.77;;;;;;;3.77;100.00;98582.13;15284137;19;20018;-46
2023/04/20 04:01:48;;;;;;;12.80;11.38;;;;;;;3.79;100.00;98577.53;15285629;19;20022;-47
2023/04/20 04:07:16;;;;;;;10.35;9.32;;;;;;;3.77;100.00;98572.28;15290276;19;20016;-51
2023/04/20 04:12:42;;;;;;;12.55;10.15;;;;;;;3.81;100.00;98567.59;15280239;19;20037;-51
2023/04/20 04:18:07;;;;;;;10.50;9.48;;;;;;;3.82;100.00;98570.16;15290294;19;20389;-49
2023/04/20 04:23:41;;;;;;;10.60;9.50;;;;;;;3.88;100.00;98574.16;15320734;19;20011;-47
2023/04/20 04:29:27;;;;;;;10.43;9.40;;;;;;;3.92;100.00;98583.63;15343280;19;20046;-45
2023/04/20 04:34:56;;;;;;;10.30;9.30;;;;;;;3.96;100.00;98582.44;15337096;19;20027;-45
2023/04/20 04:40:24;;;;;;;10.77;9.27;;;;;;;3.99;100.00;98589.38;15300239;19;20015;-48
2023/04/20 04:45:52;;;;;;;10.15;9.05;;;;;;;4.03;100.00;98577.50;15275345;19;20490;-49
2023/04/20 04:51:18;;;;;;;9.68;8.73;;;;;;;4.07;100.00;98584.28;15279304;19;20146;-48
2023/04/20 04:56:46;;;;;;;9.98;8.95;;;;;;;4.12;100.00;98589.28;15278319;19;20018;-49
2023/04/20 05:02:11;;;;;;;8.45;7.65;;;;;;;4.20;100.00;98589.53;15302468;19;20039;-45
2023/04/20 05:07:37;;;;;;;8.93;7.85;;;;;;;4.28;100.00;98592.50;15303355;19;20472;-44
2023/04/20 05:13:04;;;;;;;8.82;7.90;;;;;;;4.35;100.00;98594.66;15290680;19;20018;-49
2023/04/20 05:18:29;;;;;;;9.18;8.10;;;;;;;4.40;100.00;98589.84;15305271;19;20017;-45
2023/04/20 05:23:54;;;;;;;8.80;7.90;;;;;;;4.48;100.00;98593.59;15302986;19;20025;-50
2023/04/20 05:29:28;;;;;;;8.95;8.10;;;;;;;4.56;100.00;98595.69;15285936;19;20026;-47
2023/04/20 05:34:53;;;;;;;7.80;7.10;;;;;;;4.61;100.00;98590.84;15284333;19;20025;-44
2023/04/20 05:40:18;;;;;;;7.55;6.75;;;;;;;4.66;100.00;98590.50;15283316;19;20014;-45
2023/04/20 05:45:45;;;;;;;7.30;6.60;;;;;;;4.75;100.00;98591.59;15276643;19;20015;-45
2023/04/20 05:51:10;;;;;;;7.88;7.18;;;;;;;4.81;100.00;98591.09;15276624;19;20371;-46
2023/04/20 05:56:35;;;;;;;8.27;7.47;;;;;;;4.83;100.00;98586.50;15277423;19;20021;-45
2023/04/20 06:02:09;;;;;;;8.82;7.35;;;;;;;4.94;100.00;98599.84;15283527;19;20018;-48
2023/04/20 06:07:34;;;;;;;7.10;6.40;;;;;;;5.08;100.00;98590.75;15284304;19;20014;-46
2023/04/20 06:12:58;;;;;;;6.10;5.47;;;;;;;5.08;100.00;98587.22;15282546;19;20017;-44
2023/04/20 06:18:25;;;;;;;6.25;5.70;;;;;;;5.14;100.00;98602.75;15282600;19;20006;-45
2023/04/20 06:23:50;;;;;;;6.05;5.40;;;;;;;5.17;100.00;98607.84;15274829;19;20739;-46
2023/04/20 06:29:21;;;;;;;6.50;5.80;;;;;;;5.19;100.00;98599.72;15281038;19;20380;-45
2023/04/20 06:34:49;;;;;;;5.30;4.80;;;;;;;5.26;100.00;98600.94;15277709;19;20478;-47
2023/04/20 06:40:16;;;;;;;5.15;4.65;;;;;;;5.29;100.00;98597.16;15277954;19;20811;-47
2023/04/20 06:45:41;;;;;;;4.95;4.53;;;;;;;5.18;100.00;98590.88;14767242;19;10000398;-45
2023/04/20 06:51:09;;;;;;;5.28;4.78;;;;;;;5.12;100.00;98591.34;15259151;19;20013;-45
2023/04/20 06:56:34;;;;;;;6.57;5.25;;;;;;;5.11;100.00;98602.16;15271258;19;20006;-48
2023/04/20 07:01:58;;;;;;;5.85;5.25;;;;;;;5.02;100.00;98601.06;15281149;19;20035;-45
2023/04/20 07:07:25;;;;;;;4.93;4.53;;;;;;;5.12;100.00;98602.03;15278335;19;20546;-44
2023/04/20 07:12:51;;;;;;;4.80;4.40;;;;;;;5.19;100.00;98597.91;15277286;19;20235;-45
2023/04/20 07:18:16;;;;;;;4.80;4.40;;;;;;;5.18;100.00;98600.69;15275970;19;20772;-46
2023/04/20 07:23:43;;;;;;;5.03;4.53;;;;;;;5.17;100.00;98594.50;15274574;19;20010;-45
2023/04/20 07:29:08;;;;;;;4.43;4.03;;;;;;;5.25;100.00;98594.72;15270154;19;20033;-45
2023/04/20 07:34:32;;;;;;;3.85;3.55;;;;;;;5.30;100.00;98602.38;15274083;19;20010;-45
2023/04/20 07:39:59;;;;;;;3.60;3.30;;;;;;;5.38;100.00;98597.28;15274990;19;20023;-45
2023/04/20 07:45:24;;;;;;;3.30;3.00;;;;;;;5.38;100.00;98597.28;15272580;19;20020;-45
2023/04/20 07:50:49;;;;;;;2.80;2.60;;;;;;;5.53;100.00;98603.19;15276705;19;20025;-44
2023/04/20 07:56:16;;;;;;;3.28;2.97;;;;;;;5.64;100.00;98598.78;15269753;19;20538;-45
2023/04/20 08:01:41;;;;;;;2.80;2.60;;;;;;;5.80;100.00;98599.25;15267158;19;20018;-45
2023/04/20 08:07:05;;;;;;;2.50;2.30;;;;;;;5.88;100.00;98590.56;15275161;19;20014;-45
2023/04/20 08:12:32;;;;;;;3.47;1.83;;;;;;;5.90;100.00;98601.16;15273008;19;20014;-44
2023/04/20 08:17:57;;;;;;;1.70;1.60;;;;;;;6.06;100.00;98596.25;15273311;19;20010;-45
2023/04/20 08:23:26;;;;;;;1.80;1.70;;;;;;;6.19;100.00;98581.84;15272497;19;20018;-45
2023/04/20 08:28:53;;;;;;;1.40;1.30;;;;;;;6.22;100.00;98585.13;15271269;19;20018;-45
2023/04/20 08:34:19;;;;;;;1.02;1.02;;;;;;;6.20;100.00;98583.53;15265311;19;20014;-46
2023/04/20 08:39:43;;;;;;;24.75;3.15;;;;;;;6.32;100.00;98585.19;15273225;19;20010;-46
2023/04/20 08:45:11;;;;;;;1.48;1.38;;;;;;;6.62;100.00;98576.34;15270071;19;20017;-45
2023/04/20 08:50:36;;;;;;;2.05;1.17;;;;;;;6.85;100.00;98575.34;15274597;19;20491;-45
2023/04/20 08:56:01;;;;;;;1.30;1.20;;;;;;;6.94;100.00;98561.16;15268310;19;20026;-44
2023/04/20 09:01:37;;;;;;;1.40;1.30;;;;;;;7.14;100.00;98555.84;15268067;19;20019;-45
2023/04/20 09:07:03;;;;;;;1.17;1.17;;;;;;;7.34;100.00;98552.25;15272654;19;20014;-45
2023/04/20 09:12:28;;;;;;;1.23;1.17;;;;;;;7.39;100.00;98547.31;15271389;19;20551;-46
2023/04/20 09:17:55;;;;;;;1.30;1.20;;;;;;;7.30;100.00;98555.31;15272263;19;20025;-46
2023/04/20 09:23:21;;;;;;;1.92;1.80;;;;;;;7.56;100.00;98558.38;15269538;19;20097;-50
2023/04/20 09:28:46;;;;;;;1.60;1.50;;;;;;;7.55;100.00;98552.13;15269289;19;20014;-47
2023/04/20 09:34:13;;;;;;;1.80;1.70;;;;;;;7.60;100.00;98554.41;15263951;19;20017;-44
2023/04/20 09:39:43;;;;;;;2.00;1.90;;;;;;;7.72;100.00;98553.28;15268499;19;20015;-45
2023/04/20 09:45:09;;;;;;;2.08;1.98;;;;;;;7.99;100.00;98553.59;15271005;19;20349;-47
2023/04/20 09:50:38;;;;;;;2.47;2.25;;;;;;;8.00;100.00;98549.91;15284958;19;20018;-46
2023/04/20 09:56:09;;;;;;;2.55;2.30;;;;;;;8.07;100.00;98545.69;15278750;19;20015;-47
2023/04/20 10:01:37;;;;;;;2.95;2.30;;;;;;;8.24;100.00;98536.06;15281586;19;20010;-47
2023/04/20 10:07:05;;;;;;;3.08;2.60;;;;;;;8.36;100.00;98541.25;15279222;19;20025;-47
2023/04/20 10:12:30;;;;;;;3.10;2.90;;;;;;;8.58;100.00;98538.28;15283306;19;20038;-45
2023/04/20 10:17:54;;;;;;;3.42;3.20;;;;;;;8.76;100.00;98542.91;15283729;19;20014;-45
2023/04/20 10:23:21;;;;;;;3.47;3.17;;;;;;;8.62;100.00;98544.19;15281341;19;20022;-44
2023/04/20 10:28:47;;;;;;;4.20;3.80;;;;;;;8.64;100.00;98531.47;15277417;19;20029;-46
2023/04/20 10:34:13;;;;;;;4.25;3.88;;;;;;;8.64;100.00;98526.09;15255319;19;20018;-46
2023/04/20 10:39:40;;;;;;;4.90;3.75;;;;;;;8.69;100.00;98512.22;15274590;19;20362;-46
2023/04/20 10:45:05;;;;;;;3.85;3.55;;;;;;;8.76;100.00;98510.66;15275518;19;20018;-47
2023/04/20 10:50:30;;;;;;;3.70;3.40;;;;;;;8.72;100.00;98498.50;15280873;19;20037;-45
2023/04/20 10:56:03;;;;;;;3.20;2.95;;;;;;;8.62;100.00;98485.13;15272205;19;20049;-45
2023/04/20 11:01:28;;;;;;;6.30;3.00;;;;;;;8.72;100.00;98485.09;15275780;19;20347;-47
2023/04/20 11:06:54;;;;;;;2.75;2.55;;;;;;;8.66;100.00;98475.78;15277589;19;20019;-48
2023/04/20 11:12:22;;;;;;;3.20;2.90;;;;;;;8.76;100.00;98470.38;15270960;19;20018;-45
2023/04/20 11:17:47;;;;;;;4.25;2.97;;;;;;;8.79;100.00;98470.06;15275137;19;20121;-46
2023/04/20 11:23:11;;;;;;;5.07;3.00;;;;;;;8.75;100.00;98468.69;15272566;19;20026;-47
2023/04/20 11:28:45;;;;;;;3.10;2.80;;;;;;;8.68;100.00;98472.94;15276500;19;20023;-46
2023/04/20 11:34:19;;;;;;;3.10;2.80;;;;;;;8.53;100.00;98464.53;15273602;19;20018;-48
2023/04/20 11:39:45;;;;;;;2.60;2.40;;;;;;;8.61;100.00;98467.31;15276537;19;20037;-47
2023/04/20 11:45:13;;;;;;;3.55;2.80;;;;;;;8.46;100.00;98466.91;15266278;19;20550;-50
2023/04/20 11:50:37;;;;;;;5.05;3.03;;;;;;;8.42;100.00;98452.06;15275973;19;20011;-47
2023/04/20 11:56:03;;;;;;;3.10;2.80;;;;;;;8.27;100.00;98460.63;15268466;19;20014;-48
2023/04/20 12:01:30;;;;;;;4.95;3.10;;;;;;;8.27;100.00;98457.06;15269820;19;20031;-48
2023/04/20 12:06:57;;;;;;;3.40;2.92;;;;;;;8.23;100.00;98448.47;15273147;19;20372;-45
2023/04/20 12:12:22;;;;;;;3.90;3.50;;;;;;;8.25;100.00;98462.59;15272366;19;20022;-47
2023/04/20 12:17:50;;;;;;;3.92;3.63;;;;;;;8.10;100.00;98481.00;15266419;19;20044;-46
2023/04/20 12:23:14;;;;;;;4.05;3.42;;;;;;;7.88;100.00;98465.22;15266320;19;20041;-46
2023/04/20 12:28:39;;;;;;;4.22;3.83;;;;;;;7.70;100.00;98474.81;15270392;19;20074;-46
2023/04/20 12:34:06;;;;;;;4.38;3.97;;;;;;;7.88;100.00;98463.38;15268653;19;20033;-46
2023/04/20 12:39:32;;;;;;;4.25;3.85;;;;;;;8.27;100.00;98435.59;15271817;19;20095;-44
2023/04/20 12:44:56;;;;;;;5.38;4.43;;;;;;;8.88;100.00;98434.22;15267172;19;20010;-49
2023/04/20 12:50:26;;;;;;;4.45;4.10;;;;;;;9.29;100.00;98443.75;15267292;19;20022;-47
2023/04/20 12:55:51;;;;;;;3.60;3.30;;;;;;;9.50;100.00;98436.22;15265400;19;20050;-46
2023/04/20 13:01:18;;;;;;;3.65;3.35;;;;;;;9.29;100.00;98425.75;15269505;19;20014;-46
2023/04/20 13:06:46;;;;;;;3.45;3.15;;;;;;;9.11;100.00;98420.41;15268776;19;20494;-46
2023/04/20 13:12:11;;;;;;;3.70;3.30;;;;;;;9.34;100.00;98420.78;15268143;19;20018;-46
2023/04/20 13:17:35;;;;;;;4.00;3.67;;;;;;;9.56;100.00;98387.19;15266144;19;20010;-48
2023/04/20 13:23:05;;;;;;;3.70;3.40;;;;;;;9.60;100.00;98386.88;15272944;19;20018;-50
2023/04/20 13:28:32;;;;;;;3.93;3.60;;;;;;;9.71;100.00;98400.06;15284614;19;20029;-47
2023/04/20 13:33:57;;;;;;;4.22;3.60;;;;;;;9.48;100.00;98392.50;15279169;19;20019;-46
2023/04/20 13:39:26;;;;;;;4.50;4.10;;;;;;;9.54;100.00;98394.56;15280655;19;20014;-46
2023/04/20 13:44:51;;;;;;;4.05;3.65;;;;;;;9.50;100.00;98398.56;15278828;19;21055;-46
2023/04/20 13:50:17;;;;;;;4.00;3.70;;;;;;;9.52;100.00;98387.66;15281644;19;20364;-47
2023/04/20 13:55:44;;;;;;;3.83;3.53;;;;;;;9.34;100.00;98391.19;15273681;19;20025;-46
2023/04/20 14:01:17;;;;;;;4.07;3.78;;;;;;;9.33;100.00;98381.44;15278562;19;20486;-46
2023/04/20 14:06:43;;;;;;;4.45;4.05;;;;;;;9.09;100.00;98376.69;15280728;19;20018;-47
2023/04/20 14:12:10;;;;;;;4.95;4.13;;;;;;;8.83;100.00;98385.50;15278866;19;20017;-46
2023/04/20 14:17:35;;;;;;;4.97;4.47;;;;;;;8.44;100.00;98391.03;15280255;19;20491;-45
2023/04/20 14:23:00;;;;;;;5.30;4.80;;;;;;;8.20;100.00;98392.41;15275309;19;20025;-45
2023/04/20 14:28:35;;;;;;;6.55;5.63;;;;;;;7.90;100.00;98388.13;15265834;19;20846;-46
2023/04/20 14:34:00;;;;;;;5.78;5.30;;;;;;;7.80;100.00;98380.94;15276452;19;20015;-45
2023/04/20 14:39:26;;;;;;;7.75;6.57;;;;;;;7.85;100.00;98391.22;15281085;19;20055;-47
2023/04/20 14:44:54;;;;;;;7.30;6.13;;;;;;;7.99;100.00;98393.47;15274122;19;20026;-45
2023/04/20 14:50:19;;;;;;;6.70;6.10;;;;;;;8.12;100.00;98387.75;15275890;19;20014;-46
2023/04/20 14:55:44;;;;;;;7.20;6.50;;;;;;;8.14;100.00;98393.84;15272079;19;20015;-49
2023/04/20 15:01:11;;;;;;;9.25;7.03;;;;;;;8.02;100.00;98398.53;15271298;19;20409;-45
2023/04/20 15:06:36;;;;;;;8.00;7.20;;;;;;;7.89;100.00;98397.16;15272402;19;20364;-47
2023/04/20 15:12:00;;;;;;;8.50;7.63;;;;;;;7.75;100.00;98390.41;15276292;19;20014;-45
2023/04/20 15:17:27;;;;;;;8.30;7.50;;;;;;;7.60;100.00;98396.22;15276611;19;20019;-47
2023/04/20 15:22:52;;;;;;;9.88;7.68;;;;;;;7.50;100.00;98401.59;15272937;19;20023;-45
2023/04/20 15:28:18;;;;;;;8.90;8.00;;;;;;;7.45;100.00;98405.69;15273429;19;20025;-46
2023/04/20 15:33:52;;;;;;;8.52;7.68;;;;;;;7.45;100.00;98421.78;15268284;19;20015;-46
2023/04/20 15:39:17;;;;;;;9.02;8.13;;;;;;;7.43;100.00;98407.66;15274320;19;20021;-47
2023/04/20 15:44:42;;;;;;;9.25;8.35;;;;;;;7.53;100.00;98409.34;15267567;19;20018;-46
2023/04/20 15:50:10;;;;;;;9.13;8.27;;;;;;;7.57;100.00;98399.19;15268842;19;20026;-46
2023/04/20 15:55:35;;;;;;;10.82;8.85;;;;;;;7.60;100.00;98390.84;15261841;19;20014;-46
2023/04/20 16:01:07;;;;;;;10.15;9.10;;;;;;;7.61;100.00;98389.88;15263540;19;20842;-47
2023/04/20 16:06:35;;;;;;;10.87;9.77;;;;;;;7.60;100.00;98388.16;15262792;19;20014;-47
2023/04/20 16:12:00;;;;;;;11.68;9.35;;;;;;;7.69;100.00;98407.91;15271311;19;20021;-46
2023/04/20 16:17:25;;;;;;;10.90;9.80;;;;;;;7.71;100.00;98381.81;15269465;19;20025;-46
2023/04/20 16:22:52;;;;;;;10.35;9.32;;;;;;;7.70;100.00;98388.16;15269539;19;20090;-46
2023/04/20 16:28:17;;;;;;;12.05;10.15;;;;;;;7.77;100.00;98388.44;15271125;19;20020;-44
2023/04/20 16:33:48;;;;;;;10.85;9.43;;;;;;;7.80;100.00;98393.53;15265054;19;20025;-46
2023/04/20 16:39:17;;;;;;;10.50;9.50;;;;;;;7.80;100.00;98393.53;15272009;19;20006;-46
2023/04/20 16:44:42;;;;;;;11.88;10.60;;;;;;;7.80;100.00;98396.19;15261525;19;20018;-45
2023/04/20 16:50:08;;;;;;;10.82;9.73;;;;;;;7.76;100.00;98395.63;15271067;19;20139;-46
2023/04/20 16:55:36;;;;;;;11.25;10.15;;;;;;;7.75;100.00;98393.97;15258150;19;20502;-46
2023/04/20 17:01:01;;;;;;;11.43;10.32;;;;;;;7.77;100.00;98401.84;15259419;19;20014;-46
2023/04/20 17:06:26;;;;;;;12.00;10.70;;;;;;;7.80;100.00;98404.25;15255009;19;20054;-46
2023/04/20 17:11:55;;;;;;;12.30;11.00;;;;;;;7.78;100.00;98406.22;15263491;19;20105;-47
2023/04/20 17:17:19;;;;;;;12.05;10.68;;;;;;;7.81;100.00;98411.31;15266736;19;20049;-46
2023/04/20 17:22:45;;;;;;;13.25;11.20;;;;;;;7.80;100.00;98404.25;15264996;19;20602;-46
2023/04/20 17:28:12;;;;;;;12.27;11.05;;;;;;;7.80;100.00;98412.28;15260954;19;20018;-47
2023/04/20 17:33:44;;;;;;;12.05;10.80;;;;;;;7.80;100.00;98407.75;15256437;19;20010;-48
2023/04/20 17:39:09;;;;;;;12.10;10.80;;;;;;;7.80;100.00;98412.28;15257029;19;20044;-46
2023/04/20 17:44:37;;;;;;;12.68;11.38;;;;;;;7.79;100.00;98414.13;15260211;19;20025;-46
2023/04/20 17:50:03;;;;;;;12.93;11.63;;;;;;;7.77;100.00;98421.44;15265545;19;20053;-46
2023/04/20 17:55:28;;;;;;;12.48;11.18;;;;;;;7.76;100.00;98422.44;15262087;19;20015;-46
2023/04/20 18:00:56;;;;;;;13.55;12.15;;;;;;;7.75;100.00;98427.97;15264185;19;20442;-47
2023/04/20 18:06:20;;;;;;;13.52;11.88;;;;;;;7.73;100.00;98430.78;15265289;19;20015;-47
2023/04/20 18:11:45;;;;;;;14.23;11.75;;;;;;;7.70;100.00;98428.38;15273165;19;20637;-46
2023/04/20 18:17:12;;;;;;;12.70;11.40;;;;;;;7.61;100.00;98431.94;15279932;19;20014;-48
2023/04/20 18:22:37;;;;;;;13.32;12.00;;;;;;;7.56;100.00;98440.41;15275413;19;20558;-48
2023/04/20 18:28:01;;;;;;;14.13;12.20;;;;;;;7.48;100.00;98453.63;15277346;19;20011;-46
2023/04/20 18:33:35;;;;;;;14.43;12.52;;;;;;;7.46;100.00;98461.00;15274592;19;20053;-47
2023/04/20 18:39:00;;;;;;;15.70;13.00;;;;;;;7.44;100.00;98469.16;15279052;19;20022;-47
2023/04/20 18:44:21;;;;;;;14.93;12.88;;;;;;;7.41;100.00;98477.47;15280282;19;20025;-47
2023/04/20 18:49:48;;;;;;;13.90;12.45;;;;;;;7.38;100.00;98475.09;15273942;19;20025;-46
2023/04/20 18:55:13;;;;;;;14.10;12.60;;;;;;;7.34;100.00;98474.53;15273754;19;20018;-46
2023/04/20 19:00:37;;;;;;;14.15;12.65;;;;;;;7.28;100.00;98475.09;15278354;19;20048;-46
2023/04/20 19:06:05;;;;;;;14.90;12.82;;;;;;;7.23;100.00;98475.50;15270702;19;20006;-45
2023/04/20 19:11:30;;;;;;;15.80;13.30;;;;;;;7.12;100.00;98477.44;15275888;19;20502;-49
2023/04/20 19:16:55;;;;;;;14.57;13.07;;;;;;;7.01;100.00;98473.91;15267547;19;20364;-46
2023/04/20 19:22:22;;;;;;;16.27;13.70;;;;;;;6.94;100.00;98484.31;15273132;19;20029;-46
2023/04/20 19:27:47;;;;;;;17.75;14.15;;;;;;;6.87;100.00;98480.50;15278559;19;20015;-46
2023/04/20 19:33:18;;;;;;;18.77;15.10;;;;;;;6.82;100.00;98476.53;15279910;19;20826;-46
2023/04/20 19:38:46;;;;;;;17.77;13.90;;;;;;;6.74;100.00;98478.06;15284091;19;20010;-47
2023/04/20 19:44:13;;;;;;;17.70;14.57;;;;;;;6.70;100.00;98465.91;15278212;19;20014;-47
2023/04/20 19:49:38;;;;;;;17.30;15.40;;;;;;;6.63;100.00;98470.13;15271770;19;20494;-48
2023/04/20 19:55:05;;;;;;;17.17;14.93;;;;;;;6.59;100.00;98472.22;15272507;19;20464;-46
2023/04/20 20:00:30;;;;;;;17.50;15.10;;;;;;;6.53;100.00;98469.22;15278238;19;20860;-45
2023/04/20 20:05:54;;;;;;;17.50;14.63;;;;;;;6.53;100.00;98469.22;15273593;19;20117;-49
2023/04/20 20:11:24;;;;;;;16.30;14.60;;;;;;;6.44;100.00;98469.06;15279889;19;20007;-45
2023/04/20 20:16:48;;;;;;;16.70;14.40;;;;;;;6.41;100.00;98460.44;15278447;19;20015;-45
2023/04/20 20:22:13;;;;;;;17.65;15.02;;;;;;;6.32;100.00;98451.38;15272357;19;20013;-45
2023/04/20 20:27:40;;;;;;;17.08;14.93;;;;;;;6.30;100.00;98461.38;15277587;19;20022;-45
2023/04/20 20:33:11;;;;;;;15.85;14.23;;;;;;;6.21;100.00;98449.66;15275440;19;20018;-46
2023/04/20 20:38:38;;;;;;;16.23;14.53;;;;;;;6.16;100.00;98446.53;15277333;19;20014;-46
2023/04/20 20:44:05;;;;;;;16.38;14.65;;;;;;;6.08;100.00;98439.16;15273518;19;20025;-45
2023/04/20 20:49:30;;;;;;;16.27;14.57;;;;;;;6.02;100.00;98439.69;15274908;19;20847;-44
2023/04/20 20:54:54;;;;;;;19.30;17.10;;;;;;;5.97;100.00;98442.75;15269254;19;20034;-46
2023/04/20 21:00:22;;;;;;;20.60;18.05;;;;;;;5.95;100.00;98446.50;15274503;19;20025;-46
2023/04/20 21:05:46;;;;;;;21.80;17.35;;;;;;;5.89;100.00;98441.69;15272023;19;20096;-45
2023/04/20 21:11:11;;;;;;;17.52;15.65;;;;;;;5.81;100.00;98445.88;15274511;19;20361;-46
2023/04/20 21:16:38;;;;;;;17.48;15.60;;;;;;;5.73;100.00;98439.47;15271617;19;20026;-45
2023/04/20 21:22:03;;;;;;;17.98;16.02;;;;;;;5.67;100.00;98432.81;15273680;19;20444;-46
2023/04/20 21:27:28;;;;;;;17.50;15.65;;;;;;;5.59;100.00;98435.28;15270577;19;20018;-45
2023/04/20 21:32:56;;;;;;;18.42;16.15;;;;;;;5.51;100.00;98426.09;15271688;19;20020;-46
2023/04/20 21:38:20;;;;;;;19.80;17.77;;;;;;;5.46;100.00;98441.69;15274218;19;20014;-45
2023/04/20 21:43:45;;;;;;;25.73;21.60;;;;;;;5.47;100.00;98447.84;15283608;19;20022;-46
2023/04/20 21:49:12;;;;;;;30.77;25.05;;;;;;;5.59;100.00;98491.41;15288641;19;20021;-45
2023/04/20 21:54:39;;;;;;;28.67;23.60;;;;;;;5.62;100.00;98517.88;15284693;19;20022;-45
2023/04/20 22:00:03;;;;;;;23.58;18.95;;;;;;;5.56;100.00;98503.22;15284013;19;20014;-45
2023/04/20 22:05:31;;;;;;;22.13;19.20;;;;;;;5.51;100.00;98484.88;15283966;19;20105;-44
2023/04/20 22:10:57;;;;;;;28.80;22.10;;;;;;;5.53;100.00;98503.44;15287374;19;20014;-44
2023/04/20 22:16:23;;;;;;;25.90;21.98;;;;;;;5.49;100.00;98504.69;15282518;19;20011;-45
2023/04/20 22:21:50;;;;;;;33.75;25.83;;;;;;;5.53;100.00;98520.34;15287529;19;20014;-46
2023/04/20 22:27:15;;;;;;;34.55;27.17;;;;;;;5.59;100.00;98540.38;15286639;19;20356;-46
2023/04/20 22:32:46;;;;;;;31.52;24.65;;;;;;;5.55;100.00;98545.13;15278086;19;20027;-45
2023/04/20 22:38:14;;;;;;;35.20;27.67;;;;;;;5.67;100.00;98555.78;15286057;19;20081;-46
2023/04/20 22:43:38;;;;;;;33.47;26.58;;;;;;;5.75;100.00;98565.84;15283949;19;20022;-46
2023/04/20 22:49:04;;;;;;;35.03;26.70;;;;;;;5.89;100.00;98568.19;15281532;19;20021;-52
2023/04/20 22:54:31;;;;;;;29.95;24.33;;;;;;;5.95;100.00;98564.16;15272834;19;20342;-46
2023/04/20 22:59:56;;;;;;;26.65;21.55;;;;;;;6.01;100.00;98558.34;15281856;19;20021;-47
2023/04/20 23:05:21;;;;;;;26.38;22.30;;;;;;;6.06;100.00;98545.41;15275890;19;20011;-50
2023/04/20 23:10:49;;;;;;;25.13;21.63;;;;;;;6.11;100.00;98548.56;15280611;19;20029;-52
2023/04/20 23:16:15;;;;;;;24.13;20.08;;;;;;;6.12;100.00;98528.88;15282848;19;20010;-48
2023/04/20 23:21:40;;;;;;;20.73;18.55;;;;;;;6.17;100.00;98528.47;15279303;19;21256;-46
2023/04/20 23:27:07;;;;;;;22.75;18.77;;;;;;;6.16;100.00;98526.78;15276434;19;20007;-49
2023/04/20 23:32:32;;;;;;;21.58;18.73;;;;;;;6.17;100.00;98513.25;15273963;19;20007;-47
2023/04/20 23:37:59;;;;;;;19.67;17.05;;;;;;;6.21;100.00;98497.81;15279006;19;20018;-47
2023/04/20 23:43:27;;;;;;;20.73;17.67;;;;;;;6.23;100.00;98481.63;15276849;19;20018;-49
2023/04/20 23:48:54;;;;;;;20.13;16.65;;;;;;;6.25;100.00;98482.34;15281288;19;20012;-52
2023/04/20 23:54:26;;;;;;;20.98;16.23;;;;;;;6.25;100.00;98467.13;15279982;19;20018;-46
2023/04/20 23:59:54;;;;;;;18.13;16.08;;;;;;;6.28;100.00;98458.84;15277155;19;20474;-48
